createdAt,value
2023-03-23T15:58:53.376Z,46.96
2023-03-23T16:01:28.599Z,47.35
2023-03-23T16:04:20.656Z,46.60
2023-03-23T16:06:48.772Z,47.07
2023-03-23T16:09:21.297Z,47.14
2023-03-23T16:11:48.500Z,48.09
2023-03-23T16:14:15.731Z,48.08
2023-03-23T16:16:51.051Z,47.40
2023-03-23T16:19:24.362Z,48.39
2023-03-23T16:21:51.649Z,48.14
2023-03-23T16:24:19.064Z,49.45
2023-03-23T16:26:46.760Z,48.26
2023-03-23T16:29:33.881Z,48.45
2023-03-23T16:32:04.540Z,48.51
2023-03-23T16:34:33.718Z,48.98
2023-03-23T16:37:01.354Z,51.69
2023-03-23T16:39:28.733Z,56.59
2023-03-23T16:41:56.077Z,56.76
2023-03-23T16:44:23.334Z,56.77
2023-03-23T16:46:50.565Z,56.74
2023-03-23T16:49:17.658Z,58.08
2023-03-23T16:51:44.722Z,58.57
2023-03-23T16:54:11.838Z,58.85
2023-03-23T16:56:39.439Z,57.96
2023-03-23T16:59:09.877Z,59.06
2023-03-23T17:01:37.068Z,60.62
2023-03-23T17:04:07.298Z,60.65
2023-03-23T17:06:34.555Z,58.55
2023-03-23T17:09:01.600Z,59.10
2023-03-23T17:11:28.668Z,59.98
2023-03-23T17:13:55.744Z,60.63
2023-03-23T17:16:23.336Z,60.34
2023-03-23T17:18:50.595Z,59.83
2023-03-23T17:21:20.693Z,58.67
2023-03-23T17:23:47.790Z,57.87
2023-03-23T17:26:14.880Z,60.75
2023-03-23T17:28:42.015Z,59.45
2023-03-23T17:31:09.184Z,59.55
2023-03-23T17:33:36.260Z,59.42
2023-03-23T17:36:03.501Z,58.91
2023-03-23T17:38:30.854Z,59.53
2023-03-23T17:41:00.256Z,60.23
2023-03-23T17:43:33.725Z,60.37
2023-03-23T17:46:00.805Z,61.37
2023-03-23T17:48:27.915Z,60.95
2023-03-23T17:50:59.806Z,60.67
2023-03-23T17:53:28.156Z,60.67
2023-03-23T17:55:56.984Z,62.05
2023-03-23T17:58:28.084Z,61.43
2023-03-23T18:00:56.672Z,60.59
2023-03-23T18:03:25.803Z,60.47
2023-03-23T18:06:00.658Z,60.94
2023-03-23T18:08:28.712Z,61.21
2023-03-23T18:10:57.776Z,60.54
2023-03-23T18:13:27.507Z,60.78
2023-03-23T18:15:56.698Z,60.17
2023-03-23T18:18:26.071Z,59.94
2023-03-23T18:21:08.352Z,60.01
2023-03-23T18:23:45.977Z,59.54
2023-03-23T18:26:17.234Z,59.76
2023-03-23T18:28:44.328Z,59.17
2023-03-23T18:31:15.820Z,60.15
2023-03-23T18:33:46.806Z,59.98
2023-03-23T18:36:23.905Z,59.53
2023-03-23T18:38:51.553Z,60.04
2023-03-23T18:41:19.296Z,59.81
2023-03-23T18:43:46.499Z,60.23
2023-03-23T18:46:13.842Z,61.31
2023-03-23T18:48:41.114Z,61.19
2023-03-23T18:51:09.041Z,61.15
2023-03-23T18:53:36.383Z,61.20
2023-03-23T18:56:15.747Z,61.59
2023-03-23T18:58:45.012Z,61.83
2023-03-23T19:01:16.615Z,62.00
2023-03-23T19:03:45.337Z,62.80
2023-03-23T19:06:23.891Z,62.44
2023-03-23T19:08:52.286Z,63.71
2023-03-23T19:11:20.974Z,64.10
2023-03-23T19:14:00.395Z,64.22
2023-03-23T19:16:38.034Z,65.81
2023-03-23T19:19:08.177Z,64.69
2023-03-23T19:21:36.131Z,64.17
2023-03-23T19:24:07.204Z,64.61
2023-03-23T19:27:08.681Z,64.94
2023-03-23T19:29:36.459Z,64.41
2023-03-23T19:32:06.352Z,64.63
2023-03-23T19:34:33.681Z,64.67
2023-03-23T19:37:05.274Z,64.52
2023-03-23T19:39:34.526Z,64.46
2023-03-23T19:42:04.810Z,64.77
2023-03-23T19:44:33.353Z,64.66
2023-03-23T19:47:01.144Z,65.49
2023-03-23T19:49:28.461Z,65.72
2023-03-23T19:52:07.221Z,65.25
2023-03-23T19:54:38.709Z,64.80
2023-03-23T19:57:06.722Z,65.05
2023-03-23T19:59:34.099Z,65.28
2023-03-23T20:02:01.369Z,65.33
2023-03-23T20:04:28.847Z,65.70
2023-03-23T20:06:57.167Z,65.42
2023-03-23T20:09:25.364Z,65.45
2023-03-23T20:11:53.603Z,65.18
2023-03-23T20:14:21.128Z,65.43
2023-03-23T20:16:48.740Z,64.80
2023-03-23T20:19:16.468Z,64.40
2023-03-23T20:21:43.646Z,65.17
2023-03-23T20:24:11.218Z,65.09
2023-03-23T20:26:43.492Z,65.64
2023-03-23T20:29:10.892Z,64.77
2023-03-23T20:31:41.607Z,64.69
2023-03-23T20:34:14.045Z,64.77
2023-03-23T20:36:45.775Z,64.69
2023-03-23T20:39:21.517Z,66.39
2023-03-23T20:41:54.538Z,66.51
2023-03-23T20:44:25.171Z,66.07
2023-03-23T20:46:53.810Z,65.92
2023-03-23T20:49:21.980Z,65.88
2023-03-23T20:51:50.606Z,65.22
2023-03-23T20:54:19.808Z,64.99
2023-03-23T20:56:47.893Z,65.56
2023-03-23T20:59:16.088Z,65.53
2023-03-23T21:01:44.711Z,64.85
2023-03-23T21:04:18.709Z,65.11
2023-03-23T21:06:48.990Z,69.64
2023-03-23T21:09:17.509Z,68.75
2023-03-23T21:11:46.469Z,68.17
2023-03-23T21:14:15.023Z,68.29
2023-03-23T21:16:43.151Z,67.52
2023-03-23T21:19:11.638Z,69.69
2023-03-23T21:21:42.333Z,70.27
2023-03-23T21:24:31.352Z,72.43
2023-03-23T21:27:02.979Z,73.65
2023-03-23T21:29:30.766Z,73.04
2023-03-23T21:34:28.298Z,75.62
2023-03-23T21:36:55.470Z,74.38
2023-03-23T21:39:22.838Z,76.03
2023-03-23T21:41:50.069Z,75.84
2023-03-23T21:44:18.101Z,76.74
2023-03-23T21:46:45.289Z,77.22
2023-03-23T21:49:14.232Z,76.61
2023-03-23T21:51:43.288Z,76.85
2023-03-23T21:54:11.812Z,76.90
2023-03-23T21:56:39.273Z,76.34
2023-03-23T21:59:07.705Z,76.30
2023-03-23T22:01:36.983Z,75.21
2023-03-23T22:04:07.546Z,75.91
2023-03-23T22:06:38.015Z,74.75
2023-03-23T22:09:05.690Z,74.65
2023-03-23T22:11:33.581Z,74.75
2023-03-23T22:14:01.745Z,73.45
2023-03-23T22:16:29.061Z,76.58
2023-03-23T22:19:00.035Z,76.73
2023-03-23T22:21:28.425Z,77.87
2023-03-23T22:24:00.364Z,77.13
2023-03-23T22:26:28.973Z,77.54
2023-03-23T22:28:57.641Z,78.25
2023-03-23T22:31:33.697Z,77.06
2023-03-23T22:34:04.759Z,77.16
2023-03-23T22:36:35.561Z,76.24
2023-03-23T22:39:04.007Z,75.21
2023-03-23T22:41:40.238Z,75.95
2023-03-23T22:44:18.779Z,77.00
2023-03-23T22:46:46.579Z,76.19
2023-03-23T22:49:15.974Z,77.81
2023-03-23T22:51:43.226Z,77.81
2023-03-23T22:54:11.481Z,78.05
2023-03-23T22:56:41.508Z,78.62
2023-03-23T22:59:09.464Z,78.18
2023-03-23T23:01:36.787Z,78.49
2023-03-23T23:04:04.948Z,78.56
2023-03-23T23:06:32.259Z,76.90
2023-03-23T23:08:59.402Z,75.75
2023-03-23T23:11:27.355Z,76.36
2023-03-23T23:13:54.525Z,77.53
2023-03-23T23:16:24.235Z,77.14
2023-03-23T23:18:52.444Z,77.83
2023-03-23T23:21:24.630Z,78.38
2023-03-23T23:23:52.412Z,80.14
2023-03-23T23:26:20.665Z,79.26
2023-03-23T23:28:48.668Z,78.94
2023-03-23T23:31:32.280Z,78.71
2023-03-23T23:34:02.145Z,78.77
2023-03-23T23:36:32.200Z,78.84
2023-03-23T23:39:06.489Z,76.99
2023-03-23T23:41:35.324Z,78.73
2023-03-23T23:44:06.249Z,78.80
2023-03-23T23:46:33.692Z,79.63
2023-03-23T23:49:01.219Z,78.89
2023-03-23T23:51:29.897Z,78.24
2023-03-23T23:54:01.417Z,79.60
2023-03-23T23:56:31.256Z,78.61
2023-03-23T23:58:59.117Z,79.84
